Time;durP1;ratioP1;P1;durP2;ratioP2;P2;SDS_P1;SDS_P2;PMS_P1;PMS_P2;Temp;Humidity;BMP_temperature;BMP_pressure;BME280_temperature;BME280_humidity;BME280_pressure;Samples;Min_cycle;Max_cycle;Signal;HPM_P1;HPM_P2
2023/07/08 00:00:25;;;;;;;3.38;2.50;;;22.80;65.10;;;;;;4969339;28;20122;-75
2023/07/08 00:02:52;;;;;;;4.93;2.33;;;22.90;64.90;;;;;;4965500;28;20555;-76
2023/07/08 00:05:19;;;;;;;4.60;2.15;;;22.90;65.20;;;;;;4964146;28;20032;-76
2023/07/08 00:07:46;;;;;;;4.70;2.55;;;22.80;65.40;;;;;;4967658;28;20018;-77
2023/07/08 00:10:18;;;;;;;6.15;2.72;;;22.80;65.50;;;;;;4962083;28;20572;-76
2023/07/08 00:12:46;;;;;;;2.85;2.38;;;22.80;65.70;;;;;;4966457;28;20031;-76
2023/07/08 00:15:15;;;;;;;2.83;2.38;;;22.80;65.90;;;;;;4970251;28;20019;-76
2023/07/08 00:17:44;;;;;;;3.08;2.50;;;22.70;65.70;;;;;;4966557;28;20070;-76
2023/07/08 00:20:20;;;;;;;2.70;2.50;;;22.80;65.90;;;;;;4965117;28;20092;-76
2023/07/08 00:22:46;;;;;;;7.03;2.60;;;22.70;65.90;;;;;;4965020;28;20488;-76
2023/07/08 00:25:19;;;;;;;5.18;2.28;;;22.70;66.00;;;;;;4964639;28;20026;-77
2023/07/08 00:27:46;;;;;;;2.55;2.35;;;22.70;66.10;;;;;;4963189;28;20018;-76
2023/07/08 00:30:25;;;;;;;4.47;2.30;;;22.70;66.30;;;;;;4964252;28;20632;-77
2023/07/08 00:32:53;;;;;;;8.05;2.47;;;22.60;66.30;;;;;;4962803;28;20058;-77
2023/07/08 00:35:43;;;;;;;4.07;2.60;;;22.60;66.60;;;;;;4968513;28;20057;-76
2023/07/08 00:38:26;;;;;;;4.28;2.83;;;22.60;66.70;;;;;;4982224;28;20116;-76
2023/07/08 00:41:13;;;;;;;8.13;2.40;;;22.60;66.70;;;;;;4963820;28;20049;-77
2023/07/08 00:43:40;;;;;;;2.75;2.28;;;22.50;66.80;;;;;;4964965;28;20025;-76
2023/07/08 00:46:27;;;;;;;5.32;2.30;;;22.50;67.10;;;;;;4962597;28;20419;-76
2023/07/08 00:49:18;;;;;;;2.50;2.30;;;22.50;67.20;;;;;;4963936;28;20027;-76
2023/07/08 00:51:43;;;;;;;2.35;2.15;;;22.50;67.30;;;;;;4958525;28;20402;-76
2023/07/08 00:54:17;;;;;;;2.85;2.15;;;22.40;67.50;;;;;;4966254;28;20026;-77
2023/07/08 00:56:59;;;;;;;3.55;2.53;;;22.40;67.40;;;;;;4965366;28;20472;-76
2023/07/08 00:59:34;;;;;;;6.90;2.13;;;22.40;67.50;;;;;;4964153;28;20475;-76
2023/07/08 01:02:05;;;;;;;3.83;3.00;;;22.50;67.50;;;;;;4966608;28;20286;-76
2023/07/08 01:04:52;;;;;;;3.95;2.13;;;22.40;67.60;;;;;;4963605;28;20613;-76
2023/07/08 01:07:21;;;;;;;2.55;2.35;;;22.40;67.60;;;;;;4964422;28;20031;-77
2023/07/08 01:09:51;;;;;;;4.80;2.38;;;22.40;67.50;;;;;;4967257;28;20035;-77
2023/07/08 01:12:28;;;;;;;4.20;2.20;;;22.40;67.50;;;;;;4966673;28;20053;-76
2023/07/08 01:14:54;;;;;;;3.33;2.20;;;22.40;67.50;;;;;;4961974;28;20023;-77
2023/07/08 01:17:23;;;;;;;7.00;2.75;;;22.40;67.60;;;;;;4966315;28;20406;-76
2023/07/08 01:19:51;;;;;;;4.32;2.38;;;22.40;67.80;;;;;;4964229;28;20356;-76
2023/07/08 01:22:19;;;;;;;3.03;2.25;;;22.40;67.80;;;;;;4963002;28;20042;-76
2023/07/08 01:24:47;;;;;;;7.07;2.22;;;22.40;68.10;;;;;;4962602;28;20106;-76
2023/07/08 01:27:16;;;;;;;4.57;2.60;;;22.40;67.80;;;;;;4967011;28;20030;-77
2023/07/08 01:29:42;;;;;;;4.13;2.58;;;22.40;67.80;;;;;;4949062;28;20041;-77
2023/07/08 01:32:17;;;;;;;3.47;2.15;;;22.40;68.00;;;;;;4960683;28;20055;-76
2023/07/08 01:34:59;;;;;;;2.53;2.28;;;22.50;67.60;;;;;;4962412;28;20840;-76
2023/07/08 01:37:38;;;;;;;3.38;2.25;;;22.50;67.60;;;;;;4965141;28;20034;-76
2023/07/08 01:40:19;;;;;;;3.17;2.47;;;22.50;67.50;;;;;;4963945;28;20053;-76
2023/07/08 01:42:45;;;;;;;10.32;2.45;;;22.40;67.50;;;;;;4963681;28;20362;-76
2023/07/08 01:45:17;;;;;;;5.05;2.63;;;22.40;67.90;;;;;;4970222;28;20188;-76
2023/07/08 01:47:51;;;;;;;3.45;2.63;;;22.40;68.10;;;;;;4967681;28;20105;-76
2023/07/08 01:50:19;;;;;;;2.88;2.67;;;22.40;68.10;;;;;;4967674;28;20080;-76
2023/07/08 01:52:48;;;;;;;5.07;2.30;;;22.30;68.10;;;;;;4962022;28;20035;-77
2023/07/08 01:55:24;;;;;;;11.48;2.72;;;22.30;68.20;;;;;;4961091;28;20629;-77
2023/07/08 01:57:52;;;;;;;4.50;2.53;;;22.30;69.10;;;;;;4949573;28;20031;-77
2023/07/08 02:00:18;;;;;;;6.18;2.42;;;22.20;68.20;;;;;;4965705;28;20085;-76
2023/07/08 02:02:46;;;;;;;4.10;2.42;;;22.30;68.40;;;;;;4955115;28;20050;-77
2023/07/08 02:05:15;;;;;;;3.97;2.72;;;22.20;68.70;;;;;;4964810;28;20307;-77
2023/07/08 02:07:40;;;;;;;3.03;2.47;;;22.10;68.80;;;;;;4959342;28;20018;-76
2023/07/08 02:10:08;;;;;;;4.07;2.17;;;22.10;69.00;;;;;;4961080;28;20025;-77
2023/07/08 02:12:36;;;;;;;8.57;2.47;;;22.10;69.00;;;;;;4963591;28;20475;-77
2023/07/08 02:15:05;;;;;;;4.03;2.42;;;22.00;69.20;;;;;;4963999;28;20033;-77
2023/07/08 02:17:30;;;;;;;2.85;2.25;;;22.00;69.50;;;;;;4974486;28;20019;-77
2023/07/08 02:19:56;;;;;;;4.88;2.75;;;21.90;69.70;;;;;;4958683;28;20406;-76
2023/07/08 02:22:23;;;;;;;4.10;2.40;;;21.90;69.90;;;;;;4963504;28;20042;-76
2023/07/08 02:24:50;;;;;;;3.65;2.60;;;21.90;70.00;;;;;;4963025;28;20387;-76
2023/07/08 02:27:16;;;;;;;2.30;2.03;;;21.90;70.00;;;;;;4958507;28;20026;-77
2023/07/08 02:29:42;;;;;;;3.95;2.60;;;21.80;70.10;;;;;;4964865;28;20078;-77
2023/07/08 02:32:11;;;;;;;3.30;2.30;;;21.80;70.20;;;;;;4964218;28;20027;-77
2023/07/08 02:34:37;;;;;;;3.67;2.45;;;21.80;70.30;;;;;;4957641;28;20081;-77
2023/07/08 02:37:03;;;;;;;2.42;2.22;;;21.80;70.40;;;;;;4964988;28;20038;-77
2023/07/08 02:39:33;;;;;;;3.30;2.47;;;21.80;70.60;;;;;;4965900;28;20037;-76
2023/07/08 02:42:01;;;;;;;4.70;2.20;;;21.70;70.80;;;;;;4955533;28;20125;-77
2023/07/08 02:44:26;;;;;;;7.80;2.70;;;21.60;71.10;;;;;;4966355;28;20026;-77
2023/07/08 02:46:52;;;;;;;3.55;2.65;;;21.60;71.40;;;;;;4963139;28;20027;-77
2023/07/08 02:49:17;;;;;;;3.55;2.60;;;21.60;71.40;;;;;;4964139;28;20041;-77
2023/07/08 02:51:43;;;;;;;5.63;2.40;;;21.50;71.60;;;;;;4964584;28;20474;-77
2023/07/08 02:54:09;;;;;;;2.80;2.60;;;21.40;72.00;;;;;;4962572;28;20089;-76
2023/07/08 02:56:34;;;;;;;6.82;2.17;;;21.40;72.20;;;;;;4964155;28;20027;-76
2023/07/08 02:59:00;;;;;;;2.45;2.25;;;21.40;72.30;;;;;;4964460;28;20023;-77
2023/07/08 03:01:26;;;;;;;6.10;2.58;;;21.40;72.40;;;;;;4962786;28;20038;-77
2023/07/08 03:03:56;;;;;;;4.15;2.45;;;21.30;72.60;;;;;;4950678;28;20466;-77
2023/07/08 03:06:25;;;;;;;4.50;2.53;;;21.30;72.80;;;;;;4965550;28;20386;-77
2023/07/08 03:08:53;;;;;;;3.85;2.10;;;21.30;73.00;;;;;;4961231;28;20042;-77
2023/07/08 03:11:19;;;;;;;9.75;2.67;;;21.20;73.10;;;;;;4961346;28;20030;-76
2023/07/08 03:13:47;;;;;;;4.43;2.17;;;21.20;73.40;;;;;;4966305;28;20368;-77
2023/07/08 03:16:12;;;;;;;7.75;2.42;;;21.30;73.20;;;;;;4964558;28;20103;-77
2023/07/08 03:18:46;;;;;;;3.15;2.88;;;21.20;73.50;;;;;;4961972;28;20034;-77
2023/07/08 03:21:14;;;;;;;3.05;2.30;;;21.20;73.40;;;;;;4964570;28;20034;-77
2023/07/08 03:23:40;;;;;;;4.20;2.58;;;21.20;73.50;;;;;;4962835;28;20122;-76
2023/07/08 03:26:08;;;;;;;4.55;2.30;;;21.20;73.70;;;;;;4965054;28;20042;-76
2023/07/08 03:28:34;;;;;;;5.82;2.92;;;21.20;74.00;;;;;;4960844;28;20114;-77
2023/07/08 03:30:59;;;;;;;2.70;2.42;;;21.10;74.00;;;;;;4950139;28;20035;-76
2023/07/08 03:33:27;;;;;;;6.55;2.92;;;21.10;74.40;;;;;;4960103;28;20049;-77
2023/07/08 03:35:54;;;;;;;5.57;2.53;;;21.10;74.60;;;;;;4961294;28;20266;-77
2023/07/08 03:38:20;;;;;;;3.88;2.70;;;21.00;75.00;;;;;;4952177;28;20629;-77
2023/07/08 03:40:45;;;;;;;11.52;2.70;;;21.00;75.00;;;;;;4960567;28;20042;-77
2023/07/08 03:43:11;;;;;;;10.02;2.85;;;21.00;75.10;;;;;;4961200;28;20490;-76
2023/07/08 03:45:39;;;;;;;6.05;2.58;;;21.00;75.10;;;;;;4965574;28;20097;-76
2023/07/08 03:48:05;;;;;;;5.85;2.90;;;21.00;75.60;;;;;;4962141;28;20066;-76
2023/07/08 03:50:30;;;;;;;10.57;2.92;;;20.90;75.50;;;;;;4962871;28;20054;-77
2023/07/08 03:52:59;;;;;;;4.13;2.70;;;21.00;75.60;;;;;;4966887;28;20073;-77
2023/07/08 03:55:24;;;;;;;4.22;2.40;;;21.00;75.90;;;;;;4965999;28;20544;-77
2023/07/08 03:57:50;;;;;;;3.35;2.83;;;21.00;75.80;;;;;;4962680;28;20031;-76
2023/07/08 04:00:16;;;;;;;6.88;2.75;;;21.00;76.10;;;;;;4964904;28;20092;-76
2023/07/08 04:02:45;;;;;;;3.58;2.65;;;20.90;76.10;;;;;;4966588;28;20034;-76
2023/07/08 04:05:20;;;;;;;3.08;2.63;;;21.00;76.20;;;;;;4964819;28;20030;-76
2023/07/08 04:07:46;;;;;;;3.47;2.33;;;21.00;76.20;;;;;;4963999;28;20045;-76
2023/07/08 04:10:13;;;;;;;3.58;2.50;;;21.00;76.30;;;;;;4965625;28;20113;-77
2023/07/08 04:12:39;;;;;;;3.58;2.70;;;20.90;76.30;;;;;;4966703;28;20041;-77
2023/07/08 04:15:08;;;;;;;5.47;2.42;;;20.90;76.40;;;;;;4962944;28;20103;-76
2023/07/08 04:17:40;;;;;;;3.50;2.50;;;20.90;76.70;;;;;;4963870;28;20022;-77
2023/07/08 04:20:08;;;;;;;3.90;2.67;;;20.90;77.40;;;;;;4960098;28;20030;-76
2023/07/08 04:22:34;;;;;;;3.30;2.58;;;20.90;76.80;;;;;;4969535;28;20336;-77
2023/07/08 04:24:59;;;;;;;3.53;2.80;;;20.80;76.80;;;;;;4964346;28;20709;-76
2023/07/08 04:27:25;;;;;;;5.50;2.88;;;20.80;77.10;;;;;;4963440;28;20042;-76
2023/07/08 04:29:53;;;;;;;2.80;2.60;;;20.80;77.10;;;;;;4969230;28;20019;-76
2023/07/08 04:32:18;;;;;;;4.15;2.85;;;20.80;77.10;;;;;;4962978;28;20165;-76
2023/07/08 04:34:44;;;;;;;3.53;2.25;;;20.80;77.40;;;;;;4964093;28;20258;-76
2023/07/08 04:37:12;;;;;;;3.47;2.63;;;20.80;77.30;;;;;;4969761;28;20030;-76
2023/07/08 04:39:39;;;;;;;4.03;3.17;;;20.80;77.50;;;;;;4963853;28;20019;-77
2023/07/08 04:42:05;;;;;;;4.70;2.70;;;20.80;77.40;;;;;;4965539;28;20039;-77
2023/07/08 04:44:32;;;;;;;3.95;2.92;;;20.80;77.50;;;;;;4966798;28;20027;-76
2023/07/08 04:47:00;;;;;;;5.78;2.50;;;20.80;77.50;;;;;;4962480;28;20068;-76
2023/07/08 04:49:31;;;;;;;3.58;2.65;;;20.90;77.70;;;;;;4964754;28;20050;-76
2023/07/08 04:51:58;;;;;;;7.25;3.00;;;20.90;77.50;;;;;;4968413;28;20015;-76
2023/07/08 04:54:26;;;;;;;11.93;3.25;;;20.90;77.50;;;;;;4962288;28;20233;-77
2023/07/08 04:56:52;;;;;;;3.30;2.30;;;21.00;77.40;;;;;;4957691;28;20421;-75
2023/07/08 04:59:22;;;;;;;5.75;2.92;;;21.00;77.30;;;;;;4966154;28;20490;-75
2023/07/08 05:01:48;;;;;;;7.95;2.42;;;21.00;77.30;;;;;;4962497;28;20133;-75
2023/07/08 05:04:16;;;;;;;6.30;2.33;;;21.10;77.10;;;;;;4960562;28;20237;-77
2023/07/08 05:06:42;;;;;;;3.78;2.50;;;21.20;76.80;;;;;;4961335;28;20026;-75
2023/07/08 05:09:10;;;;;;;2.97;2.67;;;21.30;76.60;;;;;;4964095;28;20042;-75
2023/07/08 05:11:38;;;;;;;5.07;2.58;;;21.40;76.60;;;;;;4960740;28;20042;-77
2023/07/08 05:14:05;;;;;;;3.25;2.75;;;21.50;76.20;;;;;;4965858;28;20495;-76
2023/07/08 05:16:35;;;;;;;4.63;2.80;;;21.50;76.20;;;;;;4967235;28;20546;-76
2023/07/08 05:19:01;;;;;;;2.55;2.35;;;21.60;76.30;;;;;;4944889;28;20126;-76
2023/07/08 05:21:33;;;;;;;6.38;2.88;;;21.70;76.20;;;;;;4960237;28;20126;-76
2023/07/08 05:23:59;;;;;;;7.07;2.85;;;21.80;75.80;;;;;;4966172;28;20038;-77
2023/07/08 05:26:24;;;;;;;6.55;2.97;;;21.80;76.10;;;;;;4961621;28;20078;-76
2023/07/08 05:28:50;;;;;;;3.80;2.65;;;21.90;75.80;;;;;;4960356;28;20467;-75
2023/07/08 05:31:16;;;;;;;2.92;2.63;;;22.00;75.90;;;;;;4969343;28;20023;-77
2023/07/08 05:33:41;;;;;;;5.80;2.80;;;22.00;75.80;;;;;;4969597;28;20030;-76
2023/07/08 05:36:07;;;;;;;4.65;2.97;;;22.20;75.50;;;;;;4957640;28;20042;-75
2023/07/08 05:38:32;;;;;;;19.23;8.00;;;22.30;75.50;;;;;;4964159;28;20332;-73
2023/07/08 05:40:59;;;;;;;3.10;2.70;;;22.40;75.30;;;;;;4964056;28;20112;-76
2023/07/08 05:43:25;;;;;;;4.68;2.88;;;22.40;74.60;;;;;;4967714;28;20037;-75
2023/07/08 05:45:51;;;;;;;2.65;2.45;;;22.50;74.50;;;;;;4964294;28;20424;-76
2023/07/08 05:48:17;;;;;;;4.53;2.60;;;22.50;74.80;;;;;;4965554;28;20027;-76
2023/07/08 05:50:45;;;;;;;4.70;2.67;;;22.60;74.00;;;;;;4964827;28;20498;-76
2023/07/08 05:53:11;;;;;;;2.90;2.65;;;22.70;73.80;;;;;;4963777;28;20450;-76
2023/07/08 05:55:40;;;;;;;5.55;2.90;;;22.80;73.60;;;;;;4962634;28;20512;-76
2023/07/08 05:58:05;;;;;;;4.55;2.42;;;22.90;73.00;;;;;;4959861;28;20053;-76
2023/07/08 06:00:31;;;;;;;7.15;2.72;;;22.90;73.00;;;;;;4958772;28;20039;-76
2023/07/08 06:02:56;;;;;;;3.22;2.88;;;23.00;72.50;;;;;;4959457;28;20035;-76
2023/07/08 06:05:22;;;;;;;6.60;2.70;;;23.00;72.60;;;;;;4966524;28;20081;-76
2023/07/08 06:07:48;;;;;;;3.97;2.85;;;23.20;72.30;;;;;;4961940;28;20062;-76
2023/07/08 06:10:13;;;;;;;5.20;2.75;;;23.20;72.40;;;;;;4968366;28;20312;-76
2023/07/08 06:12:39;;;;;;;8.55;3.13;;;23.30;72.30;;;;;;4961154;28;20019;-76
2023/07/08 06:15:05;;;;;;;2.67;2.35;;;23.40;72.10;;;;;;4968250;28;20452;-76
2023/07/08 06:17:31;;;;;;;6.70;2.60;;;23.60;72.30;;;;;;4965777;28;20498;-77
2023/07/08 06:19:59;;;;;;;3.17;2.60;;;23.70;72.20;;;;;;4964467;28;20061;-76
2023/07/08 06:22:24;;;;;;;2.85;2.65;;;23.80;70.80;;;;;;4965208;28;20038;-76
2023/07/08 06:24:50;;;;;;;8.13;3.40;;;23.80;71.10;;;;;;4962585;28;20690;-77
2023/07/08 06:27:15;;;;;;;4.63;2.70;;;23.90;71.10;;;;;;4965915;28;20038;-77
2023/07/08 06:29:41;;;;;;;2.63;2.42;;;24.00;70.10;;;;;;4963221;28;20029;-77
2023/07/08 06:32:09;;;;;;;6.70;3.10;;;24.10;70.40;;;;;;4954828;28;20058;-77
2023/07/08 06:34:34;;;;;;;3.28;2.55;;;24.10;69.70;;;;;;4968195;28;20053;-77
2023/07/08 06:37:02;;;;;;;4.07;3.08;;;24.10;69.30;;;;;;4960609;28;20368;-76
2023/07/08 06:39:30;;;;;;;3.58;2.95;;;24.20;69.70;;;;;;4966678;28;20153;-76
2023/07/08 06:41:56;;;;;;;3.38;2.60;;;24.30;69.50;;;;;;4962862;28;20037;-76
2023/07/08 06:44:21;;;;;;;3.67;2.60;;;24.30;68.90;;;;;;4963922;28;20442;-76
2023/07/08 06:46:47;;;;;;;9.60;3.00;;;24.30;68.90;;;;;;4963733;28;20031;-76
2023/07/08 06:49:15;;;;;;;3.40;2.85;;;24.30;69.00;;;;;;4962504;28;20030;-76
2023/07/08 06:51:42;;;;;;;5.60;2.95;;;24.40;70.30;;;;;;4961206;28;20039;-78
2023/07/08 06:54:11;;;;;;;3.95;3.40;;;24.40;69.70;;;;;;4964773;28;20349;-78
2023/07/08 06:56:40;;;;;;;4.20;3.38;;;24.50;69.60;;;;;;4967995;28;20030;-76
2023/07/08 06:59:11;;;;;;;5.03;2.70;;;24.50;69.30;;;;;;5090718;22;20050;-75
2023/07/08 07:01:39;;;;;;;4.30;3.08;;;24.60;68.90;;;;;;4978792;28;20046;-76
2023/07/08 07:04:05;;;;;;;5.30;3.17;;;24.70;68.80;;;;;;4960721;28;20047;-76
2023/07/08 07:06:31;;;;;;;8.63;3.40;;;24.80;68.30;;;;;;4960204;28;20140;-75
2023/07/08 07:08:56;;;;;;;5.22;3.50;;;24.90;67.30;;;;;;4961741;28;20158;-78
2023/07/08 07:11:22;;;;;;;3.53;3.22;;;25.00;66.40;;;;;;4966885;28;20279;-78
2023/07/08 07:13:48;;;;;;;4.85;3.58;;;25.00;66.80;;;;;;4980921;28;20015;-75
2023/07/08 07:16:13;;;;;;;5.28;3.35;;;25.10;66.70;;;;;;4966324;28;20405;-76
2023/07/08 07:18:41;;;;;;;3.28;3.00;;;25.10;66.40;;;;;;4969523;28;20030;-75
2023/07/08 07:21:07;;;;;;;4.07;3.70;;;25.20;67.10;;;;;;4968877;28;20039;-76
2023/07/08 07:23:35;;;;;;;3.85;3.33;;;25.30;67.10;;;;;;4962558;28;20031;-76
2023/07/08 07:26:00;;;;;;;4.13;3.42;;;25.50;66.60;;;;;;4965562;28;20038;-76
2023/07/08 07:28:26;;;;;;;8.85;3.75;;;25.70;66.20;;;;;;4966587;28;20111;-78
2023/07/08 07:30:58;;;;;;;9.50;3.90;;;25.80;65.10;;;;;;4961271;28;20026;-77
2023/07/08 07:33:24;;;;;;;6.03;3.50;;;25.90;64.70;;;;;;4966662;28;20034;-77
2023/07/08 07:35:52;;;;;;;14.77;3.80;;;26.10;64.60;;;;;;4963887;28;20026;-77
2023/07/08 07:38:19;;;;;;;5.70;3.80;;;26.20;63.90;;;;;;4970191;28;20031;-77
2023/07/08 07:40:48;;;;;;;8.68;4.20;;;26.40;64.20;;;;;;4965091;28;20057;-78
2023/07/08 07:43:13;;;;;;;7.35;3.95;;;26.50;62.60;;;;;;4968325;28;20084;-77
2023/07/08 07:45:41;;;;;;;6.85;4.05;;;26.60;62.40;;;;;;4981142;28;20027;-77
2023/07/08 07:48:07;;;;;;;4.22;3.67;;;26.80;62.70;;;;;;4965120;28;20053;-77
2023/07/08 07:50:34;;;;;;;6.25;4.20;;;26.90;62.70;;;;;;4968642;28;20053;-77
2023/07/08 07:52:59;;;;;;;5.28;3.58;;;27.20;62.00;;;;;;4968348;28;21243;-76
2023/07/08 07:55:25;;;;;;;6.32;3.92;;;27.40;61.40;;;;;;4967687;28;20027;-79
2023/07/08 07:57:51;;;;;;;6.47;3.83;;;27.50;60.50;;;;;;4966651;28;20030;-78
2023/07/08 08:00:17;;;;;;;6.43;4.00;;;27.70;60.00;;;;;;4969482;28;20035;-77
2023/07/08 08:02:45;;;;;;;6.40;4.07;;;28.00;60.00;;;;;;4968107;28;20129;-77
2023/07/08 08:05:11;;;;;;;8.57;4.22;;;28.00;59.30;;;;;;4968307;28;20031;-78
2023/07/08 08:07:36;;;;;;;8.05;4.43;;;28.20;58.10;;;;;;4968660;28;20031;-76
2023/07/08 08:10:03;;;;;;;6.63;4.30;;;28.30;58.90;;;;;;4969296;28;20452;-78
2023/07/08 08:12:31;;;;;;;7.97;3.97;;;28.40;58.00;;;;;;4967412;28;20045;-77
2023/07/08 08:14:57;;;;;;;13.75;4.60;;;28.40;57.30;;;;;;4969033;28;20710;-77
2023/07/08 08:17:22;;;;;;;6.05;4.82;;;28.60;58.10;;;;;;4965833;28;20022;-78
2023/07/08 08:19:48;;;;;;;7.85;4.57;;;28.70;57.20;;;;;;4966311;28;20030;-77
2023/07/08 08:22:13;;;;;;;5.15;4.07;;;29.00;57.90;;;;;;4964302;28;20474;-77
2023/07/08 08:24:39;;;;;;;6.82;4.22;;;29.30;57.70;;;;;;4963684;28;20104;-77
2023/07/08 08:27:07;;;;;;;10.98;4.80;;;29.60;57.20;;;;;;4964893;28;20129;-78
2023/07/08 08:29:32;;;;;;;8.98;4.75;;;29.90;57.10;;;;;;4966731;28;20381;-78
2023/07/08 08:31:58;;;;;;;7.15;3.97;;;30.20;55.90;;;;;;4982750;28;20030;-77
2023/07/08 08:34:24;;;;;;;7.55;4.95;;;30.40;55.70;;;;;;4967911;28;20030;-77
2023/07/08 08:36:55;;;;;;;8.25;4.85;;;30.50;54.90;;;;;;4964199;28;20030;-77
2023/07/08 08:39:21;;;;;;;8.57;5.57;;;30.70;53.80;;;;;;4968923;28;20117;-77
2023/07/08 08:41:47;;;;;;;8.10;5.50;;;31.00;53.90;;;;;;4966513;28;20043;-76
2023/07/08 08:44:17;;;;;;;5.93;5.40;;;31.00;54.20;;;;;;4968999;28;20157;-78
2023/07/08 08:46:59;;;;;;;5.50;4.97;;;31.20;54.20;;;;;;4968183;28;20026;-77
2023/07/08 08:49:39;;;;;;;5.80;5.10;;;31.60;54.10;;;;;;4965643;28;20062;-78
2023/07/08 08:52:05;;;;;;;6.65;5.15;;;31.80;53.60;;;;;;4966896;28;20023;-77
2023/07/08 08:54:33;;;;;;;7.90;5.38;;;32.00;52.60;;;;;;4964437;28;20386;-77
2023/07/08 08:57:11;;;;;;;11.60;5.55;;;32.20;52.00;;;;;;4969791;28;20489;-78
2023/07/08 08:59:57;;;;;;;10.05;5.35;;;32.30;51.20;;;;;;4970464;28;20057;-77
2023/07/08 09:02:28;;;;;;;7.45;5.25;;;32.20;51.10;;;;;;4969465;28;20125;-76
2023/07/08 09:05:00;;;;;;;7.47;5.75;;;32.20;52.00;;;;;;4963627;28;20042;-76
2023/07/08 09:07:28;;;;;;;10.32;5.72;;;32.20;51.30;;;;;;4969640;28;21136;-76
2023/07/08 09:10:00;;;;;;;9.25;5.93;;;32.40;51.30;;;;;;4981237;28;20041;-77
2023/07/08 09:12:28;;;;;;;10.73;6.40;;;32.50;51.50;;;;;;4966715;28;20351;-76
2023/07/08 09:14:55;;;;;;;8.63;5.50;;;32.80;51.50;;;;;;4962976;28;20026;-75
2023/07/08 09:17:34;;;;;;;7.50;5.28;;;32.90;50.80;;;;;;4964597;28;20022;-76
2023/07/08 09:20:22;;;;;;;6.97;5.30;;;32.90;50.90;;;;;;4965985;28;20041;-77
2023/07/08 09:23:23;;;;;;;10.00;5.45;;;33.20;51.60;;;;;;4965363;28;20034;-77
2023/07/08 09:25:51;;;;;;;6.00;5.40;;;33.40;51.90;;;;;;4976168;28;20146;-76
2023/07/08 09:28:17;;;;;;;9.00;6.00;;;33.60;51.60;;;;;;4965999;28;20022;-77
2023/07/08 09:30:48;;;;;;;10.30;5.60;;;33.90;50.90;;;;;;4964977;28;20797;-78
2023/07/08 09:33:13;;;;;;;12.98;6.30;;;34.00;51.00;;;;;;4967077;28;20026;-77
2023/07/08 09:35:46;;;;;;;5.93;5.25;;;34.00;50.20;;;;;;4967709;28;20030;-76
2023/07/08 09:38:22;;;;;;;9.40;5.85;;;34.20;50.70;;;;;;4968110;28;20018;-77
2023/07/08 09:40:51;;;;;;;6.80;5.68;;;34.50;49.80;;;;;;4965372;28;20027;-77
2023/07/08 09:43:27;;;;;;;6.68;5.13;;;34.70;50.10;;;;;;4966733;28;20030;-76
2023/07/08 09:45:58;;;;;;;9.93;6.15;;;35.00;49.40;;;;;;4961313;28;20033;-77
2023/07/08 09:48:27;;;;;;;6.68;5.80;;;34.90;49.10;;;;;;4965042;28;20033;-76
2023/07/08 09:50:56;;;;;;;6.60;5.88;;;35.10;49.60;;;;;;4966092;28;20170;-76
2023/07/08 09:53:24;;;;;;;7.20;6.43;;;35.20;49.20;;;;;;4966021;28;20517;-76
2023/07/08 09:55:53;;;;;;;9.57;6.22;;;35.00;48.70;;;;;;4963297;28;20057;-76
2023/07/08 09:58:44;;;;;;;12.38;6.00;;;35.00;49.10;;;;;;4966314;28;20183;-75
2023/07/08 10:01:13;;;;;;;9.65;6.50;;;34.90;49.10;;;;;;4964364;28;20066;-76
2023/07/08 10:03:39;;;;;;;9.05;5.78;;;35.10;48.40;;;;;;4980536;28;20034;-76
2023/07/08 10:06:25;;;;;;;11.07;5.85;;;35.20;48.10;;;;;;4963408;28;20510;-76
2023/07/08 10:09:00;;;;;;;8.52;5.78;;;35.20;48.10;;;;;;4966236;28;20056;-76
2023/07/08 10:11:29;;;;;;;9.90;6.10;;;35.30;47.70;;;;;;4964315;28;20023;-76
2023/07/08 10:14:02;;;;;;;9.50;6.43;;;35.20;47.50;;;;;;4961022;28;20058;-76
2023/07/08 10:16:33;;;;;;;8.38;6.57;;;35.40;47.60;;;;;;4962880;28;20472;-75
2023/07/08 10:18:59;;;;;;;10.15;6.45;;;35.70;47.30;;;;;;4967620;28;20628;-76
2023/07/08 10:21:48;;;;;;;8.40;6.47;;;35.90;46.70;;;;;;4963446;28;20117;-76
2023/07/08 10:24:25;;;;;;;7.88;6.38;;;36.30;46.30;;;;;;4964623;28;20061;-76
2023/07/08 10:26:59;;;;;;;9.98;6.38;;;36.60;46.20;;;;;;4966086;28;20019;-75
2023/07/08 10:29:44;;;;;;;13.30;6.55;;;37.30;45.60;;;;;;4965831;28;20352;-76
2023/07/08 10:32:37;;;;;;;7.55;6.70;;;37.90;43.80;;;;;;4971426;28;20096;-76
2023/07/08 10:35:13;;;;;;;11.65;7.15;;;38.40;42.60;;;;;;4979469;28;20539;-76
2023/07/08 10:38:17;;;;;;;9.65;7.57;;;38.30;42.30;;;;;;4964759;28;20107;-76
2023/07/08 10:40:52;;;;;;;12.68;7.68;;;38.10;42.30;;;;;;4958513;28;20043;-76
2023/07/08 10:43:18;;;;;;;9.77;7.00;;;38.00;41.60;;;;;;4965671;28;20019;-76
2023/07/08 10:45:49;;;;;;;8.57;7.35;;;38.10;42.30;;;;;;4965693;28;20093;-76
2023/07/08 10:48:52;;;;;;;14.48;7.20;;;38.10;42.00;;;;;;4964780;28;20035;-75
2023/07/08 10:51:47;;;;;;;8.18;7.25;;;38.10;41.90;;;;;;4964579;28;20078;-76
2023/07/08 10:54:49;;;;;;;9.02;7.57;;;38.00;42.00;;;;;;4963961;28;20228;-76
2023/07/08 10:57:20;;;;;;;9.25;7.85;;;38.20;42.50;;;;;;4964822;28;20057;-76
2023/07/08 10:59:57;;;;;;;9.15;7.90;;;38.70;41.90;;;;;;4964910;28;20058;-76
2023/07/08 11:02:46;;;;;;;9.48;8.48;;;39.00;41.30;;;;;;4945617;28;20046;-76
2023/07/08 11:05:28;;;;;;;8.73;7.45;;;39.30;39.80;;;;;;4946954;28;20392;-76
2023/07/08 11:07:53;;;;;;;12.70;7.57;;;39.50;39.80;;;;;;4942541;28;20070;-76
2023/07/08 11:10:35;;;;;;;10.82;7.20;;;39.60;39.80;;;;;;4942553;28;20030;-76
2023/07/08 11:13:21;;;;;;;8.98;7.72;;;39.30;40.90;;;;;;4941753;28;21100;-76
2023/07/08 11:15:56;;;;;;;9.13;7.57;;;39.30;39.80;;;;;;4944438;28;20039;-76
2023/07/08 11:18:46;;;;;;;7.40;6.70;;;39.10;38.20;;;;;;4941793;28;20103;-76
2023/07/08 11:21:21;;;;;;;9.00;7.57;;;39.10;38.30;;;;;;4944705;28;20494;-76
2023/07/08 11:23:52;;;;;;;9.25;6.82;;;38.90;38.30;;;;;;4941857;28;20812;-76
2023/07/08 11:26:45;;;;;;;9.98;7.63;;;39.10;38.10;;;;;;4943916;28;20373;-77
2023/07/08 11:29:22;;;;;;;8.15;6.25;;;38.90;38.10;;;;;;4942148;28;20480;-75
2023/07/08 11:31:49;;;;;;;10.30;6.85;;;39.10;38.30;;;;;;4941081;28;20391;-76
2023/07/08 11:34:17;;;;;;;11.40;7.05;;;39.20;36.50;;;;;;4943189;28;21569;-76
2023/07/08 11:36:44;;;;;;;8.77;6.43;;;39.40;36.30;;;;;;4942360;28;20082;-76
2023/07/08 11:39:42;;;;;;;11.68;7.60;;;39.20;35.60;;;;;;4941222;28;20395;-76
2023/07/08 11:42:43;;;;;;;8.10;7.10;;;39.10;35.40;;;;;;4944431;28;20047;-75
2023/07/08 11:45:30;;;;;;;9.23;6.57;;;38.90;35.60;;;;;;4957150;28;20038;-75
2023/07/08 11:48:06;;;;;;;8.05;6.28;;;38.90;36.10;;;;;;4940144;28;20040;-76
2023/07/08 11:50:40;;;;;;;8.02;5.88;;;39.20;35.60;;;;;;4942464;28;20061;-76
2023/07/08 11:53:10;;;;;;;8.95;6.40;;;39.30;35.70;;;;;;4943923;28;20027;-76
2023/07/08 11:55:58;;;;;;;9.23;6.60;;;39.40;35.20;;;;;;4943648;28;20120;-76
2023/07/08 11:58:49;;;;;;;8.27;6.78;;;39.40;33.60;;;;;;4946776;28;20086;-76
2023/07/08 12:01:28;;;;;;;9.07;6.55;;;39.30;33.30;;;;;;4962258;28;20070;-76
2023/07/08 12:04:24;;;;;;;6.15;5.55;;;39.30;33.70;;;;;;4943737;28;20032;-76
2023/07/08 12:07:10;;;;;;;9.10;6.05;;;39.70;34.50;;;;;;4942129;28;20122;-76
2023/07/08 12:09:44;;;;;;;6.38;5.75;;;39.80;34.30;;;;;;4944414;28;20113;-76
2023/07/08 12:12:32;;;;;;;10.75;6.93;;;39.70;33.60;;;;;;4944584;28;20038;-76
2023/07/08 12:15:12;;;;;;;6.18;5.57;;;39.60;33.90;;;;;;4951932;28;20027;-76
2023/07/08 12:17:41;;;;;;;24.70;5.85;;;39.60;34.00;;;;;;4954060;28;20423;-76
2023/07/08 12:20:18;;;;;;;8.13;5.78;;;39.70;34.20;;;;;;4945417;28;20035;-76
2023/07/08 12:22:44;;;;;;;10.40;6.40;;;40.00;34.10;;;;;;4948105;28;20031;-76
2023/07/08 12:25:21;;;;;;;8.07;6.75;;;39.70;32.70;;;;;;4962646;28;20031;-76
2023/07/08 12:27:47;;;;;;;7.80;5.93;;;39.70;33.90;;;;;;4961020;28;20233;-76
2023/07/08 12:30:15;;;;;;;6.97;6.28;;;39.80;33.90;;;;;;4960027;28;20027;-77
2023/07/08 12:32:42;;;;;;;10.77;6.25;;;39.80;33.80;;;;;;4962113;28;20524;-77
2023/07/08 12:35:29;;;;;;;9.23;6.72;;;39.90;33.70;;;;;;4963291;28;20038;-77
2023/07/08 12:37:59;;;;;;;11.35;6.60;;;40.00;33.20;;;;;;4957234;28;20054;-77
2023/07/08 12:40:27;;;;;;;10.23;7.93;;;40.20;33.50;;;;;;4959554;28;20023;-77
2023/07/08 12:42:53;;;;;;;14.57;7.88;;;40.30;33.40;;;;;;4959787;28;20046;-76
2023/07/08 12:45:22;;;;;;;11.77;7.47;;;40.50;32.90;;;;;;4960239;28;20119;-76
2023/07/08 12:47:50;;;;;;;14.32;7.75;;;40.60;33.00;;;;;;4960610;28;20386;-77
2023/07/08 12:50:17;;;;;;;15.50;7.32;;;40.70;32.90;;;;;;4962183;28;20077;-77
2023/07/08 12:52:46;;;;;;;6.72;6.13;;;40.90;32.80;;;;;;4971233;28;20507;-77
2023/07/08 12:55:14;;;;;;;7.40;6.63;;;40.80;32.10;;;;;;4959865;28;20018;-76
2023/07/08 12:57:51;;;;;;;9.07;6.63;;;40.90;32.00;;;;;;4963360;28;20026;-77
2023/07/08 13:00:27;;;;;;;10.00;6.25;;;41.00;32.30;;;;;;4970478;28;20134;-77
2023/07/08 13:03:07;;;;;;;6.88;5.95;;;40.80;32.60;;;;;;4963390;28;20072;-77